sensor_id;sensor_type;location;lat;lon;timestamp;temperature;humidity
42199;DHT22;27868;45.184;5.786;2022-07-23T00:01:56;31.40;39.40
42199;DHT22;27868;45.184;5.786;2022-07-23T00:04:41;31.30;39.70
42199;DHT22;27868;45.184;5.786;2022-07-23T00:07:26;31.30;39.70
42199;DHT22;27868;45.184;5.786;2022-07-23T00:10:10;31.30;39.50
42199;DHT22;27868;45.184;5.786;2022-07-23T00:12:55;31.30;39.50
42199;DHT22;27868;45.184;5.786;2022-07-23T00:15:40;31.20;39.40
42199;DHT22;27868;45.184;5.786;2022-07-23T00:18:25;31.20;39.50
42199;DHT22;27868;45.184;5.786;2022-07-23T00:21:09;31.10;39.40
42199;DHT22;27868;45.184;5.786;2022-07-23T00:23:54;31.10;39.40
42199;DHT22;27868;45.184;5.786;2022-07-23T00:26:38;31.10;39.30
42199;DHT22;27868;45.184;5.786;2022-07-23T00:29:23;31.00;39.50
42199;DHT22;27868;45.184;5.786;2022-07-23T00:32:07;31.10;39.40
42199;DHT22;27868;45.184;5.786;2022-07-23T00:34:51;31.00;39.40
42199;DHT22;27868;45.184;5.786;2022-07-23T00:37:36;31.00;39.50
42199;DHT22;27868;45.184;5.786;2022-07-23T00:40:21;31.00;39.50
42199;DHT22;27868;45.184;5.786;2022-07-23T00:43:05;31.00;39.50
42199;DHT22;27868;45.184;5.786;2022-07-23T00:45:50;30.90;39.40
42199;DHT22;27868;45.184;5.786;2022-07-23T00:48:35;30.90;39.50
42199;DHT22;27868;45.184;5.786;2022-07-23T00:51:20;30.90;39.60
42199;DHT22;27868;45.184;5.786;2022-07-23T00:54:04;30.90;39.70
42199;DHT22;27868;45.184;5.786;2022-07-23T00:56:49;30.90;39.70
42199;DHT22;27868;45.184;5.786;2022-07-23T00:59:34;30.90;39.70
42199;DHT22;27868;45.184;5.786;2022-07-23T01:02:19;30.90;39.80
42199;DHT22;27868;45.184;5.786;2022-07-23T01:05:04;30.80;39.90
42199;DHT22;27868;45.184;5.786;2022-07-23T01:07:50;30.80;40.00
42199;DHT22;27868;45.184;5.786;2022-07-23T01:10:35;30.80;40.00
42199;DHT22;27868;45.184;5.786;2022-07-23T01:13:19;30.80;40.10
42199;DHT22;27868;45.184;5.786;2022-07-23T01:16:04;30.80;40.10
42199;DHT22;27868;45.184;5.786;2022-07-23T01:18:49;30.80;40.30
42199;DHT22;27868;45.184;5.786;2022-07-23T01:21:41;30.80;40.30
42199;DHT22;27868;45.184;5.786;2022-07-23T01:24:26;30.70;40.20
42199;DHT22;27868;45.184;5.786;2022-07-23T01:27:11;30.70;40.20
42199;DHT22;27868;45.184;5.786;2022-07-23T01:29:57;30.60;40.20
42199;DHT22;27868;45.184;5.786;2022-07-23T01:32:43;30.70;40.20
42199;DHT22;27868;45.184;5.786;2022-07-23T01:35:28;30.60;40.80
42199;DHT22;27868;45.184;5.786;2022-07-23T01:38:12;30.60;40.50
42199;DHT22;27868;45.184;5.786;2022-07-23T01:40:57;30.60;40.70
42199;DHT22;27868;45.184;5.786;2022-07-23T01:43:41;30.60;41.50
42199;DHT22;27868;45.184;5.786;2022-07-23T01:46:26;30.60;41.20
42199;DHT22;27868;45.184;5.786;2022-07-23T01:49:11;30.60;41.40
42199;DHT22;27868;45.184;5.786;2022-07-23T01:51:55;30.50;41.70
42199;DHT22;27868;45.184;5.786;2022-07-23T01:54:46;30.50;41.80
42199;DHT22;27868;45.184;5.786;2022-07-23T01:57:30;30.40;42.00
42199;DHT22;27868;45.184;5.786;2022-07-23T02:00:15;30.50;42.30
42199;DHT22;27868;45.184;5.786;2022-07-23T02:03:00;30.40;42.20
42199;DHT22;27868;45.184;5.786;2022-07-23T02:05:45;30.40;42.20
42199;DHT22;27868;45.184;5.786;2022-07-23T02:08:30;30.30;42.20
42199;DHT22;27868;45.184;5.786;2022-07-23T02:11:14;30.30;42.20
42199;DHT22;27868;45.184;5.786;2022-07-23T02:13:59;30.30;42.40
42199;DHT22;27868;45.184;5.786;2022-07-23T02:16:43;30.30;42.30
42199;DHT22;27868;45.184;5.786;2022-07-23T02:19:28;30.20;42.40
42199;DHT22;27868;45.184;5.786;2022-07-23T02:22:13;30.20;42.70
42199;DHT22;27868;45.184;5.786;2022-07-23T02:24:57;30.10;43.40
42199;DHT22;27868;45.184;5.786;2022-07-23T02:27:42;30.10;42.90
42199;DHT22;27868;45.184;5.786;2022-07-23T02:30:27;30.00;42.90
42199;DHT22;27868;45.184;5.786;2022-07-23T02:33:12;30.10;43.10
42199;DHT22;27868;45.184;5.786;2022-07-23T02:35:57;30.00;43.00
42199;DHT22;27868;45.184;5.786;2022-07-23T02:38:41;30.00;42.80
42199;DHT22;27868;45.184;5.786;2022-07-23T02:41:25;29.90;43.50
42199;DHT22;27868;45.184;5.786;2022-07-23T02:44:10;29.90;43.10
42199;DHT22;27868;45.184;5.786;2022-07-23T02:46:54;29.90;43.70
42199;DHT22;27868;45.184;5.786;2022-07-23T02:49:39;29.80;43.20
42199;DHT22;27868;45.184;5.786;2022-07-23T02:52:23;29.80;43.40
42199;DHT22;27868;45.184;5.786;2022-07-23T02:55:08;29.80;44.30
42199;DHT22;27868;45.184;5.786;2022-07-23T02:57:53;29.80;43.90
42199;DHT22;27868;45.184;5.786;2022-07-23T03:00:37;29.80;44.30
42199;DHT22;27868;45.184;5.786;2022-07-23T03:03:22;29.80;44.60
42199;DHT22;27868;45.184;5.786;2022-07-23T03:06:06;29.70;44.50
42199;DHT22;27868;45.184;5.786;2022-07-23T03:08:51;29.70;44.80
42199;DHT22;27868;45.184;5.786;2022-07-23T03:11:36;29.70;45.00
42199;DHT22;27868;45.184;5.786;2022-07-23T03:14:20;29.70;45.00
42199;DHT22;27868;45.184;5.786;2022-07-23T03:17:05;29.70;45.60
42199;DHT22;27868;45.184;5.786;2022-07-23T03:19:49;29.70;45.70
42199;DHT22;27868;45.184;5.786;2022-07-23T03:22:33;29.70;45.60
42199;DHT22;27868;45.184;5.786;2022-07-23T03:25:18;29.60;45.80
42199;DHT22;27868;45.184;5.786;2022-07-23T03:28:02;29.60;45.70
42199;DHT22;27868;45.184;5.786;2022-07-23T03:30:47;29.60;45.80
42199;DHT22;27868;45.184;5.786;2022-07-23T03:33:32;29.60;46.40
42199;DHT22;27868;45.184;5.786;2022-07-23T03:36:17;29.60;45.50
42199;DHT22;27868;45.184;5.786;2022-07-23T03:39:01;29.60;45.20
42199;DHT22;27868;45.184;5.786;2022-07-23T03:41:46;29.60;45.10
42199;DHT22;27868;45.184;5.786;2022-07-23T03:44:31;29.50;44.90
42199;DHT22;27868;45.184;5.786;2022-07-23T03:47:16;29.50;44.90
42199;DHT22;27868;45.184;5.786;2022-07-23T03:50:01;29.50;45.00
42199;DHT22;27868;45.184;5.786;2022-07-23T03:52:46;29.50;44.80
42199;DHT22;27868;45.184;5.786;2022-07-23T03:55:30;29.50;44.60
42199;DHT22;27868;45.184;5.786;2022-07-23T03:58:15;29.50;44.60
42199;DHT22;27868;45.184;5.786;2022-07-23T04:00:59;29.40;44.30
42199;DHT22;27868;45.184;5.786;2022-07-23T04:03:44;29.40;44.20
42199;DHT22;27868;45.184;5.786;2022-07-23T04:06:30;29.40;44.30
42199;DHT22;27868;45.184;5.786;2022-07-23T04:09:14;29.40;45.30
42199;DHT22;27868;45.184;5.786;2022-07-23T04:11:59;29.30;46.10
42199;DHT22;27868;45.184;5.786;2022-07-23T04:14:44;29.30;45.70
42199;DHT22;27868;45.184;5.786;2022-07-23T04:17:29;29.30;45.80
42199;DHT22;27868;45.184;5.786;2022-07-23T04:20:13;29.30;46.00
42199;DHT22;27868;45.184;5.786;2022-07-23T04:22:58;29.30;45.90
42199;DHT22;27868;45.184;5.786;2022-07-23T04:25:43;29.30;45.70
42199;DHT22;27868;45.184;5.786;2022-07-23T04:28:28;29.30;46.50
42199;DHT22;27868;45.184;5.786;2022-07-23T04:31:12;29.30;46.10
42199;DHT22;27868;45.184;5.786;2022-07-23T04:33:57;29.30;46.80
42199;DHT22;27868;45.184;5.786;2022-07-23T04:36:42;29.30;46.90
42199;DHT22;27868;45.184;5.786;2022-07-23T04:39:26;29.30;47.20
42199;DHT22;27868;45.184;5.786;2022-07-23T04:42:11;29.30;47.60
42199;DHT22;27868;45.184;5.786;2022-07-23T04:44:55;29.40;47.00
42199;DHT22;27868;45.184;5.786;2022-07-23T04:47:39;29.40;47.40
42199;DHT22;27868;45.184;5.786;2022-07-23T04:50:24;29.40;47.40
42199;DHT22;27868;45.184;5.786;2022-07-23T04:53:09;29.40;47.70
42199;DHT22;27868;45.184;5.786;2022-07-23T04:55:54;29.40;48.10
42199;DHT22;27868;45.184;5.786;2022-07-23T04:58:39;29.40;48.40
42199;DHT22;27868;45.184;5.786;2022-07-23T05:01:23;29.40;48.50
42199;DHT22;27868;45.184;5.786;2022-07-23T05:04:08;29.40;48.60
42199;DHT22;27868;45.184;5.786;2022-07-23T05:06:53;29.40;48.70
42199;DHT22;27868;45.184;5.786;2022-07-23T05:09:37;29.40;49.40
42199;DHT22;27868;45.184;5.786;2022-07-23T05:12:22;29.40;49.40
42199;DHT22;27868;45.184;5.786;2022-07-23T05:15:06;29.40;49.90
42199;DHT22;27868;45.184;5.786;2022-07-23T05:17:51;29.40;51.40
42199;DHT22;27868;45.184;5.786;2022-07-23T05:20:36;29.40;53.00
42199;DHT22;27868;45.184;5.786;2022-07-23T05:23:21;29.40;53.50
42199;DHT22;27868;45.184;5.786;2022-07-23T05:26:06;29.30;54.60
42199;DHT22;27868;45.184;5.786;2022-07-23T05:28:50;29.30;54.30
42199;DHT22;27868;45.184;5.786;2022-07-23T05:31:35;29.20;54.90
42199;DHT22;27868;45.184;5.786;2022-07-23T05:34:20;29.10;55.80
42199;DHT22;27868;45.184;5.786;2022-07-23T05:37:05;29.00;56.80
42199;DHT22;27868;45.184;5.786;2022-07-23T05:39:50;28.90;57.60
42199;DHT22;27868;45.184;5.786;2022-07-23T05:42:36;28.90;57.80
42199;DHT22;27868;45.184;5.786;2022-07-23T05:45:21;28.70;57.70
42199;DHT22;27868;45.184;5.786;2022-07-23T05:48:06;28.60;58.00
42199;DHT22;27868;45.184;5.786;2022-07-23T05:50:50;28.50;59.00
42199;DHT22;27868;45.184;5.786;2022-07-23T05:53:35;28.50;60.00
42199;DHT22;27868;45.184;5.786;2022-07-23T05:56:20;28.40;59.00
42199;DHT22;27868;45.184;5.786;2022-07-23T05:59:05;28.30;59.30
42199;DHT22;27868;45.184;5.786;2022-07-23T06:01:50;28.30;59.40
42199;DHT22;27868;45.184;5.786;2022-07-23T06:04:35;28.30;60.00
42199;DHT22;27868;45.184;5.786;2022-07-23T06:07:19;28.30;60.50
42199;DHT22;27868;45.184;5.786;2022-07-23T06:10:04;28.20;60.70
42199;DHT22;27868;45.184;5.786;2022-07-23T06:12:49;28.20;61.80
42199;DHT22;27868;45.184;5.786;2022-07-23T06:15:34;28.20;61.70
42199;DHT22;27868;45.184;5.786;2022-07-23T06:18:18;28.20;61.80
42199;DHT22;27868;45.184;5.786;2022-07-23T06:21:02;28.20;62.40
42199;DHT22;27868;45.184;5.786;2022-07-23T06:23:47;28.10;61.50
42199;DHT22;27868;45.184;5.786;2022-07-23T06:26:32;28.10;61.50
42199;DHT22;27868;45.184;5.786;2022-07-23T06:29:16;28.10;59.80
42199;DHT22;27868;45.184;5.786;2022-07-23T06:32:01;28.10;60.10
42199;DHT22;27868;45.184;5.786;2022-07-23T06:34:45;28.10;60.70
42199;DHT22;27868;45.184;5.786;2022-07-23T06:37:30;28.10;61.40
42199;DHT22;27868;45.184;5.786;2022-07-23T06:40:15;28.10;61.40
42199;DHT22;27868;45.184;5.786;2022-07-23T06:43:00;28.20;61.90
42199;DHT22;27868;45.184;5.786;2022-07-23T06:45:44;28.20;61.60
42199;DHT22;27868;45.184;5.786;2022-07-23T06:48:29;28.10;61.50
42199;DHT22;27868;45.184;5.786;2022-07-23T06:51:14;28.20;61.00
42199;DHT22;27868;45.184;5.786;2022-07-23T06:53:59;28.30;60.70
42199;DHT22;27868;45.184;5.786;2022-07-23T06:56:43;28.30;60.70
42199;DHT22;27868;45.184;5.786;2022-07-23T06:59:28;28.40;60.30
42199;DHT22;27868;45.184;5.786;2022-07-23T07:02:13;28.50;60.70
42199;DHT22;27868;45.184;5.786;2022-07-23T07:04:57;28.60;59.90
42199;DHT22;27868;45.184;5.786;2022-07-23T07:07:42;28.70;59.60
42199;DHT22;27868;45.184;5.786;2022-07-23T07:10:26;28.70;58.90
42199;DHT22;27868;45.184;5.786;2022-07-23T07:13:11;28.80;58.80
42199;DHT22;27868;45.184;5.786;2022-07-23T07:15:55;28.80;58.60
42199;DHT22;27868;45.184;5.786;2022-07-23T07:18:40;28.90;58.10
42199;DHT22;27868;45.184;5.786;2022-07-23T07:21:24;28.90;58.70
42199;DHT22;27868;45.184;5.786;2022-07-23T07:24:09;28.90;58.30
42199;DHT22;27868;45.184;5.786;2022-07-23T07:26:53;29.00;58.40
42199;DHT22;27868;45.184;5.786;2022-07-23T07:29:38;29.00;57.90
42199;DHT22;27868;45.184;5.786;2022-07-23T07:32:22;29.00;57.80
42199;DHT22;27868;45.184;5.786;2022-07-23T07:35:07;29.00;57.40
42199;DHT22;27868;45.184;5.786;2022-07-23T07:37:52;29.00;58.20
42199;DHT22;27868;45.184;5.786;2022-07-23T07:40:37;29.00;57.20
42199;DHT22;27868;45.184;5.786;2022-07-23T07:43:21;29.00;57.30
42199;DHT22;27868;45.184;5.786;2022-07-23T07:46:06;29.00;57.20
42199;DHT22;27868;45.184;5.786;2022-07-23T07:48:54;29.00;57.50
42199;DHT22;27868;45.184;5.786;2022-07-23T07:51:39;29.00;57.60
42199;DHT22;27868;45.184;5.786;2022-07-23T07:54:23;29.00;57.00
42199;DHT22;27868;45.184;5.786;2022-07-23T07:57:08;29.00;57.00
42199;DHT22;27868;45.184;5.786;2022-07-23T07:59:53;29.00;56.90
42199;DHT22;27868;45.184;5.786;2022-07-23T08:02:47;29.00;57.00
42199;DHT22;27868;45.184;5.786;2022-07-23T08:05:32;29.00;57.40
42199;DHT22;27868;45.184;5.786;2022-07-23T08:08:17;29.00;57.30
42199;DHT22;27868;45.184;5.786;2022-07-23T08:11:01;29.00;57.20
42199;DHT22;27868;45.184;5.786;2022-07-23T08:13:45;29.00;56.80
42199;DHT22;27868;45.184;5.786;2022-07-23T08:16:30;29.00;57.30
42199;DHT22;27868;45.184;5.786;2022-07-23T08:19:14;29.00;57.10
42199;DHT22;27868;45.184;5.786;2022-07-23T08:21:59;29.00;57.30
42199;DHT22;27868;45.184;5.786;2022-07-23T08:24:43;29.00;57.40
42199;DHT22;27868;45.184;5.786;2022-07-23T08:27:28;29.00;57.50
42199;DHT22;27868;45.184;5.786;2022-07-23T08:30:12;29.10;57.80
42199;DHT22;27868;45.184;5.786;2022-07-23T08:35:50;29.10;57.70
42199;DHT22;27868;45.184;5.786;2022-07-23T08:38:37;29.20;57.50
42199;DHT22;27868;45.184;5.786;2022-07-23T08:41:21;29.10;57.50
42199;DHT22;27868;45.184;5.786;2022-07-23T08:44:07;29.20;57.60
42199;DHT22;27868;45.184;5.786;2022-07-23T08:46:52;29.20;58.30
42199;DHT22;27868;45.184;5.786;2022-07-23T08:49:37;29.20;57.50
42199;DHT22;27868;45.184;5.786;2022-07-23T08:52:22;29.30;57.60
42199;DHT22;27868;45.184;5.786;2022-07-23T08:55:08;29.30;57.70
42199;DHT22;27868;45.184;5.786;2022-07-23T08:57:53;29.40;57.50
42199;DHT22;27868;45.184;5.786;2022-07-23T09:00:38;29.40;56.60
42199;DHT22;27868;45.184;5.786;2022-07-23T09:03:29;29.40;56.30
42199;DHT22;27868;45.184;5.786;2022-07-23T09:06:14;29.50;56.40
42199;DHT22;27868;45.184;5.786;2022-07-23T09:09:16;29.50;56.10
42199;DHT22;27868;45.184;5.786;2022-07-23T09:14:49;29.50;55.80
42199;DHT22;27868;45.184;5.786;2022-07-23T09:17:40;29.50;56.30
42199;DHT22;27868;45.184;5.786;2022-07-23T09:20:25;29.60;55.90
42199;DHT22;27868;45.184;5.786;2022-07-23T09:23:09;29.60;55.30
42199;DHT22;27868;45.184;5.786;2022-07-23T09:25:54;29.60;54.80
42199;DHT22;27868;45.184;5.786;2022-07-23T09:28:59;29.60;54.70
42199;DHT22;27868;45.184;5.786;2022-07-23T09:31:46;29.70;54.70
42199;DHT22;27868;45.184;5.786;2022-07-23T09:34:36;29.70;54.60
42199;DHT22;27868;45.184;5.786;2022-07-23T09:37:23;29.80;55.50
42199;DHT22;27868;45.184;5.786;2022-07-23T09:40:09;29.80;54.30
42199;DHT22;27868;45.184;5.786;2022-07-23T09:42:57;29.80;53.80
42199;DHT22;27868;45.184;5.786;2022-07-23T09:45:42;29.90;54.10
42199;DHT22;27868;45.184;5.786;2022-07-23T09:48:26;29.90;53.90
42199;DHT22;27868;45.184;5.786;2022-07-23T09:51:11;30.00;53.70
42199;DHT22;27868;45.184;5.786;2022-07-23T09:53:57;30.00;53.60
42199;DHT22;27868;45.184;5.786;2022-07-23T09:56:42;30.10;53.20
42199;DHT22;27868;45.184;5.786;2022-07-23T09:59:31;30.20;52.60
42199;DHT22;27868;45.184;5.786;2022-07-23T10:02:16;30.20;52.90
42199;DHT22;27868;45.184;5.786;2022-07-23T10:05:02;30.30;52.90
42199;DHT22;27868;45.184;5.786;2022-07-23T10:07:48;30.40;52.90
42199;DHT22;27868;45.184;5.786;2022-07-23T10:10:35;30.50;52.40
42199;DHT22;27868;45.184;5.786;2022-07-23T10:13:20;30.60;52.20
42199;DHT22;27868;45.184;5.786;2022-07-23T10:16:14;30.70;52.80
42199;DHT22;27868;45.184;5.786;2022-07-23T10:18:59;30.90;52.00
42199;DHT22;27868;45.184;5.786;2022-07-23T10:21:50;30.90;51.80
42199;DHT22;27868;45.184;5.786;2022-07-23T10:34:29;31.20;51.50
42199;DHT22;27868;45.184;5.786;2022-07-23T10:37:07;31.20;51.10
42199;DHT22;27868;45.184;5.786;2022-07-23T10:43:01;31.20;50.70
42199;DHT22;27868;45.184;5.786;2022-07-23T10:45:46;31.20;51.00
42199;DHT22;27868;45.184;5.786;2022-07-23T10:48:30;31.30;50.90
42199;DHT22;27868;45.184;5.786;2022-07-23T10:51:16;31.50;50.90
42199;DHT22;27868;45.184;5.786;2022-07-23T10:54:01;31.50;50.90
42199;DHT22;27868;45.184;5.786;2022-07-23T10:56:49;31.60;50.70
42199;DHT22;27868;45.184;5.786;2022-07-23T11:03:44;32.00;50.00
42199;DHT22;27868;45.184;5.786;2022-07-23T11:06:03;32.10;49.80
42199;DHT22;27868;45.184;5.786;2022-07-23T11:15:06;32.60;48.90
42199;DHT22;27868;45.184;5.786;2022-07-23T11:20:37;32.70;48.50
42199;DHT22;27868;45.184;5.786;2022-07-23T11:23:21;32.90;48.30
42199;DHT22;27868;45.184;5.786;2022-07-23T11:26:05;33.00;48.30
42199;DHT22;27868;45.184;5.786;2022-07-23T11:28:50;33.10;47.80
42199;DHT22;27868;45.184;5.786;2022-07-23T11:31:35;33.10;47.50
42199;DHT22;27868;45.184;5.786;2022-07-23T11:37:39;33.40;47.10
42199;DHT22;27868;45.184;5.786;2022-07-23T11:40:25;33.50;47.10
42199;DHT22;27868;45.184;5.786;2022-07-23T11:43:11;33.50;46.80
42199;DHT22;27868;45.184;5.786;2022-07-23T11:46:00;33.50;46.80
42199;DHT22;27868;45.184;5.786;2022-07-23T11:48:45;33.60;46.40
42199;DHT22;27868;45.184;5.786;2022-07-23T11:51:29;33.70;46.50
42199;DHT22;27868;45.184;5.786;2022-07-23T11:54:16;33.80;46.60
42199;DHT22;27868;45.184;5.786;2022-07-23T11:57:01;34.00;46.50
42199;DHT22;27868;45.184;5.786;2022-07-23T11:59:47;34.10;46.20
42199;DHT22;27868;45.184;5.786;2022-07-23T12:02:35;34.10;45.70
42199;DHT22;27868;45.184;5.786;2022-07-23T12:05:24;34.10;45.60
42199;DHT22;27868;45.184;5.786;2022-07-23T12:08:09;34.20;45.90
42199;DHT22;27868;45.184;5.786;2022-07-23T12:10:55;34.30;45.80
42199;DHT22;27868;45.184;5.786;2022-07-23T12:13:39;34.50;45.80
42199;DHT22;27868;45.184;5.786;2022-07-23T12:16:24;34.60;45.30
42199;DHT22;27868;45.184;5.786;2022-07-23T12:19:09;34.70;45.00
42199;DHT22;27868;45.184;5.786;2022-07-23T12:21:53;34.80;44.80
42199;DHT22;27868;45.184;5.786;2022-07-23T12:24:54;34.80;44.90
42199;DHT22;27868;45.184;5.786;2022-07-23T12:27:39;34.80;44.60
42199;DHT22;27868;45.184;5.786;2022-07-23T12:30:51;34.90;44.70
42199;DHT22;27868;45.184;5.786;2022-07-23T12:33:39;35.00;45.00
42199;DHT22;27868;45.184;5.786;2022-07-23T12:36:37;35.10;45.10
42199;DHT22;27868;45.184;5.786;2022-07-23T12:39:31;35.30;44.60
42199;DHT22;27868;45.184;5.786;2022-07-23T12:42:16;35.30;44.40
42199;DHT22;27868;45.184;5.786;2022-07-23T12:45:09;35.40;44.40
42199;DHT22;27868;45.184;5.786;2022-07-23T12:47:56;35.50;44.00
42199;DHT22;27868;45.184;5.786;2022-07-23T12:50:57;35.60;43.90
42199;DHT22;27868;45.184;5.786;2022-07-23T12:53:45;35.60;43.80
42199;DHT22;27868;45.184;5.786;2022-07-23T12:56:33;35.70;43.30
42199;DHT22;27868;45.184;5.786;2022-07-23T12:59:18;35.70;43.50
42199;DHT22;27868;45.184;5.786;2022-07-23T13:02:04;35.70;43.60
42199;DHT22;27868;45.184;5.786;2022-07-23T13:04:52;35.80;43.60
42199;DHT22;27868;45.184;5.786;2022-07-23T13:07:37;35.90;43.80
42199;DHT22;27868;45.184;5.786;2022-07-23T13:10:21;36.00;43.40
42199;DHT22;27868;45.184;5.786;2022-07-23T13:13:12;36.20;43.50
42199;DHT22;27868;45.184;5.786;2022-07-23T13:15:57;36.30;43.20
42199;DHT22;27868;45.184;5.786;2022-07-23T13:18:42;36.30;42.50
42199;DHT22;27868;45.184;5.786;2022-07-23T13:21:28;36.40;42.50
42199;DHT22;27868;45.184;5.786;2022-07-23T13:24:13;36.40;42.90
42199;DHT22;27868;45.184;5.786;2022-07-23T13:26:58;36.50;43.00
42199;DHT22;27868;45.184;5.786;2022-07-23T13:29:44;36.60;42.90
42199;DHT22;27868;45.184;5.786;2022-07-23T13:32:29;36.70;42.90
42199;DHT22;27868;45.184;5.786;2022-07-23T13:35:13;36.70;42.40
42199;DHT22;27868;45.184;5.786;2022-07-23T13:37:58;36.70;41.90
42199;DHT22;27868;45.184;5.786;2022-07-23T13:40:45;36.70;42.20
42199;DHT22;27868;45.184;5.786;2022-07-23T13:43:31;36.60;42.20
42199;DHT22;27868;45.184;5.786;2022-07-23T13:46:16;36.50;42.20
42199;DHT22;27868;45.184;5.786;2022-07-23T13:49:00;36.50;42.50
42199;DHT22;27868;45.184;5.786;2022-07-23T13:51:45;36.50;42.70
42199;DHT22;27868;45.184;5.786;2022-07-23T13:54:29;36.60;42.30
42199;DHT22;27868;45.184;5.786;2022-07-23T13:57:14;36.60;42.50
42199;DHT22;27868;45.184;5.786;2022-07-23T13:59:59;36.60;42.40
42199;DHT22;27868;45.184;5.786;2022-07-23T14:02:43;36.60;42.40
42199;DHT22;27868;45.184;5.786;2022-07-23T14:05:28;36.60;42.40
42199;DHT22;27868;45.184;5.786;2022-07-23T14:08:13;36.60;42.40
42199;DHT22;27868;45.184;5.786;2022-07-23T14:10:57;36.60;42.50
42199;DHT22;27868;45.184;5.786;2022-07-23T14:13:42;36.70;42.60
42199;DHT22;27868;45.184;5.786;2022-07-23T14:16:26;36.70;42.20
42199;DHT22;27868;45.184;5.786;2022-07-23T14:19:11;36.70;42.90
42199;DHT22;27868;45.184;5.786;2022-07-23T14:21:56;36.70;42.60
42199;DHT22;27868;45.184;5.786;2022-07-23T14:24:40;36.80;42.30
42199;DHT22;27868;45.184;5.786;2022-07-23T14:27:26;36.80;42.30
42199;DHT22;27868;45.184;5.786;2022-07-23T14:30:12;36.80;41.90
42199;DHT22;27868;45.184;5.786;2022-07-23T14:32:57;36.80;41.60
42199;DHT22;27868;45.184;5.786;2022-07-23T14:35:41;36.90;41.50
42199;DHT22;27868;45.184;5.786;2022-07-23T14:38:26;36.90;41.50
42199;DHT22;27868;45.184;5.786;2022-07-23T14:41:11;36.90;42.00
42199;DHT22;27868;45.184;5.786;2022-07-23T14:43:56;36.90;41.70
42199;DHT22;27868;45.184;5.786;2022-07-23T14:46:41;36.90;41.70
42199;DHT22;27868;45.184;5.786;2022-07-23T14:49:26;36.80;41.90
42199;DHT22;27868;45.184;5.786;2022-07-23T14:52:11;36.80;42.10
42199;DHT22;27868;45.184;5.786;2022-07-23T14:54:55;36.80;41.80
42199;DHT22;27868;45.184;5.786;2022-07-23T14:57:40;36.80;41.80
42199;DHT22;27868;45.184;5.786;2022-07-23T15:00:24;36.80;42.00
42199;DHT22;27868;45.184;5.786;2022-07-23T15:03:09;36.70;41.80
42199;DHT22;27868;45.184;5.786;2022-07-23T15:05:53;36.80;41.80
42199;DHT22;27868;45.184;5.786;2022-07-23T15:08:38;36.70;41.90
42199;DHT22;27868;45.184;5.786;2022-07-23T15:11:23;36.80;41.90
42199;DHT22;27868;45.184;5.786;2022-07-23T15:14:08;36.70;41.90
42199;DHT22;27868;45.184;5.786;2022-07-23T15:16:53;36.70;41.70
42199;DHT22;27868;45.184;5.786;2022-07-23T15:19:37;36.60;41.90
42199;DHT22;27868;45.184;5.786;2022-07-23T15:22:22;36.60;42.00
42199;DHT22;27868;45.184;5.786;2022-07-23T15:25:07;36.60;42.00
42199;DHT22;27868;45.184;5.786;2022-07-23T15:27:51;36.50;42.00
42199;DHT22;27868;45.184;5.786;2022-07-23T15:30:36;36.50;41.80
42199;DHT22;27868;45.184;5.786;2022-07-23T15:33:21;36.50;42.10
42199;DHT22;27868;45.184;5.786;2022-07-23T15:36:06;36.50;41.80
42199;DHT22;27868;45.184;5.786;2022-07-23T15:38:51;36.40;41.70
42199;DHT22;27868;45.184;5.786;2022-07-23T15:41:35;36.30;42.50
42199;DHT22;27868;45.184;5.786;2022-07-23T15:44:21;36.20;42.20
42199;DHT22;27868;45.184;5.786;2022-07-23T15:47:12;36.20;42.20
42199;DHT22;27868;45.184;5.786;2022-07-23T15:49:57;36.20;42.60
42199;DHT22;27868;45.184;5.786;2022-07-23T15:52:42;36.10;42.80
42199;DHT22;27868;45.184;5.786;2022-07-23T15:55:27;36.10;42.50
42199;DHT22;27868;45.184;5.786;2022-07-23T15:58:12;36.00;42.70
42199;DHT22;27868;45.184;5.786;2022-07-23T16:00:57;35.90;43.30
42199;DHT22;27868;45.184;5.786;2022-07-23T16:03:42;35.80;42.90
42199;DHT22;27868;45.184;5.786;2022-07-23T16:06:27;35.80;42.50
42199;DHT22;27868;45.184;5.786;2022-07-23T16:09:12;35.80;42.10
42199;DHT22;27868;45.184;5.786;2022-07-23T16:11:56;35.60;42.20
42199;DHT22;27868;45.184;5.786;2022-07-23T16:14:41;35.50;42.60
42199;DHT22;27868;45.184;5.786;2022-07-23T16:17:26;35.50;42.30
42199;DHT22;27868;45.184;5.786;2022-07-23T16:20:12;35.40;42.30
42199;DHT22;27868;45.184;5.786;2022-07-23T16:22:57;35.30;42.20
42199;DHT22;27868;45.184;5.786;2022-07-23T16:25:42;35.30;42.50
42199;DHT22;27868;45.184;5.786;2022-07-23T16:28:26;35.30;42.90
42199;DHT22;27868;45.184;5.786;2022-07-23T16:31:11;35.20;43.10
42199;DHT22;27868;45.184;5.786;2022-07-23T16:33:55;35.10;43.30
42199;DHT22;27868;45.184;5.786;2022-07-23T16:36:40;35.10;43.30
42199;DHT22;27868;45.184;5.786;2022-07-23T16:39:25;35.00;43.30
42199;DHT22;27868;45.184;5.786;2022-07-23T16:42:09;35.00;43.10
42199;DHT22;27868;45.184;5.786;2022-07-23T16:44:54;34.90;43.20
42199;DHT22;27868;45.184;5.786;2022-07-23T16:47:39;34.90;43.00
42199;DHT22;27868;45.184;5.786;2022-07-23T16:50:24;34.80;43.20
42199;DHT22;27868;45.184;5.786;2022-07-23T16:53:09;34.80;43.20
42199;DHT22;27868;45.184;5.786;2022-07-23T16:55:53;34.80;43.70
42199;DHT22;27868;45.184;5.786;2022-07-23T16:58:38;34.70;43.40
42199;DHT22;27868;45.184;5.786;2022-07-23T17:01:22;34.70;43.50
42199;DHT22;27868;45.184;5.786;2022-07-23T17:04:07;34.70;43.30
42199;DHT22;27868;45.184;5.786;2022-07-23T17:06:52;34.60;43.50
42199;DHT22;27868;45.184;5.786;2022-07-23T17:09:37;34.60;43.60
42199;DHT22;27868;45.184;5.786;2022-07-23T17:12:21;34.60;43.60
42199;DHT22;27868;45.184;5.786;2022-07-23T17:15:06;34.50;43.50
42199;DHT22;27868;45.184;5.786;2022-07-23T17:17:51;34.50;43.40
42199;DHT22;27868;45.184;5.786;2022-07-23T17:20:35;34.40;43.70
42199;DHT22;27868;45.184;5.786;2022-07-23T17:23:20;34.30;43.60
42199;DHT22;27868;45.184;5.786;2022-07-23T17:26:05;34.30;43.70
42199;DHT22;27868;45.184;5.786;2022-07-23T17:28:49;34.20;43.70
42199;DHT22;27868;45.184;5.786;2022-07-23T17:31:34;34.20;43.90
42199;DHT22;27868;45.184;5.786;2022-07-23T17:34:18;34.10;43.90
42199;DHT22;27868;45.184;5.786;2022-07-23T17:37:03;34.10;44.00
42199;DHT22;27868;45.184;5.786;2022-07-23T17:39:48;34.00;44.00
42199;DHT22;27868;45.184;5.786;2022-07-23T17:42:33;34.00;44.00
42199;DHT22;27868;45.184;5.786;2022-07-23T17:45:18;34.00;43.80
42199;DHT22;27868;45.184;5.786;2022-07-23T17:48:03;33.90;43.90
42199;DHT22;27868;45.184;5.786;2022-07-23T17:50:48;33.80;43.70
42199;DHT22;27868;45.184;5.786;2022-07-23T17:53:33;33.80;43.90
42199;DHT22;27868;45.184;5.786;2022-07-23T17:56:18;33.70;43.80
42199;DHT22;27868;45.184;5.786;2022-07-23T17:59:03;33.60;43.80